createdAt,value
2022-12-19T05:58:16.130Z,35.20
2022-12-19T06:00:50.149Z,37.10
2022-12-19T06:03:24.092Z,31.30
2022-12-19T06:05:58.281Z,23.40
2022-12-19T06:08:32.349Z,23.90
2022-12-19T06:11:08.273Z,22.70
2022-12-19T06:13:43.285Z,22.50
2022-12-19T06:16:20.077Z,20.60
2022-12-19T06:18:54.150Z,21.70
2022-12-19T06:21:28.458Z,26.90
2022-12-19T06:24:02.398Z,35.20
2022-12-19T06:26:36.470Z,38.50
2022-12-19T06:29:10.270Z,38.20
2022-12-19T06:31:44.021Z,35.80
2022-12-19T06:34:33.210Z,26.10
2022-12-19T06:37:12.937Z,26.20
2022-12-19T06:39:47.272Z,25.60
2022-12-19T06:42:24.123Z,19.70
2022-12-19T06:44:58.860Z,19.90
2022-12-19T06:47:34.245Z,19.00
2022-12-19T06:50:09.552Z,16.70
2022-12-19T06:52:43.291Z,20.50
2022-12-19T06:55:17.629Z,31.10
2022-12-19T06:57:51.831Z,32.80
2022-12-19T07:00:26.079Z,28.70
2022-12-19T07:03:01.982Z,14.30
2022-12-19T07:05:36.422Z,21.20
2022-12-19T07:08:11.297Z,17.00
2022-12-19T07:10:45.317Z,21.80
2022-12-19T07:13:19.268Z,19.10
2022-12-19T07:15:55.546Z,18.90
2022-12-19T07:18:32.451Z,16.20
2022-12-19T07:21:08.750Z,10.90
2022-12-19T07:23:43.985Z,27.00
2022-12-19T07:26:18.635Z,20.60
2022-12-19T07:28:52.447Z,18.80
2022-12-19T07:31:26.184Z,26.70
2022-12-19T07:34:00.127Z,23.70
2022-12-19T07:36:34.346Z,23.50
2022-12-19T07:39:08.520Z,17.20
2022-12-19T07:41:43.454Z,20.00
2022-12-19T07:44:17.909Z,19.70
2022-12-19T07:46:51.893Z,19.50
2022-12-19T07:49:26.019Z,15.30
2022-12-19T07:52:00.074Z,17.00
2022-12-19T07:54:35.214Z,19.00
2022-12-19T07:57:09.916Z,25.10
2022-12-19T07:59:43.967Z,20.90
2022-12-19T08:02:18.355Z,17.30
2022-12-19T08:04:52.510Z,16.60
2022-12-19T08:07:27.132Z,16.60
2022-12-19T08:10:01.445Z,18.90
2022-12-19T08:12:39.284Z,25.10
2022-12-19T08:15:14.791Z,22.00
2022-12-19T08:17:49.588Z,20.50
2022-12-19T08:20:24.361Z,18.30
2022-12-19T08:22:58.466Z,17.30
2022-12-19T08:25:35.926Z,18.20
2022-12-19T08:28:10.053Z,21.60
2022-12-19T08:30:45.046Z,20.30
2022-12-19T08:33:19.369Z,19.90
2022-12-19T08:35:53.600Z,17.90
2022-12-19T08:38:28.939Z,16.90
2022-12-19T08:41:03.996Z,20.30
2022-12-19T08:43:38.432Z,19.80
2022-12-19T08:46:12.775Z,16.50
2022-12-19T08:48:48.233Z,16.10
2022-12-19T08:51:22.526Z,17.90
2022-12-19T08:53:56.890Z,17.10
2022-12-19T08:56:30.973Z,20.10
2022-12-19T08:59:06.683Z,17.90
2022-12-19T09:01:40.499Z,16.50
2022-12-19T09:05:57.508Z,19.20
2022-12-19T09:07:10.022Z,16.80
2022-12-19T09:09:45.370Z,19.90
2022-12-19T09:12:20.377Z,19.10
2022-12-19T09:14:55.037Z,16.90
2022-12-19T09:17:29.588Z,15.70
2022-12-19T09:20:03.499Z,19.00
2022-12-19T09:22:37.858Z,16.20
2022-12-19T09:25:14.895Z,15.80
2022-12-19T09:28:25.841Z,18.20
2022-12-19T09:30:43.009Z,15.50
2022-12-19T09:33:17.954Z,18.90
2022-12-19T09:36:18.713Z,17.40
2022-12-19T09:39:00.462Z,15.30
2022-12-19T09:42:23.118Z,18.20
2022-12-19T09:45:36.338Z,15.30
2022-12-19T09:48:24.555Z,15.10
2022-12-19T09:51:18.520Z,16.60
2022-12-19T09:54:03.679Z,16.80
2022-12-19T09:56:54.075Z,15.00
2022-12-19T09:59:47.934Z,18.40
2022-12-19T10:02:42.109Z,16.10
2022-12-19T10:06:04.647Z,14.90
2022-12-19T10:08:33.296Z,14.70
2022-12-19T10:12:39.748Z,17.70
2022-12-19T10:14:53.281Z,18.20
2022-12-19T10:17:54.981Z,16.90
2022-12-19T10:20:41.746Z,16.90
2022-12-19T10:24:04.126Z,14.50
2022-12-19T10:26:53.108Z,15.60
2022-12-19T10:30:04.376Z,13.10
2022-12-19T10:33:00.915Z,14.50
2022-12-19T10:35:44.247Z,15.10
2022-12-19T10:38:38.356Z,14.60
2022-12-19T10:41:25.918Z,14.10
2022-12-19T10:44:07.591Z,13.80
2022-12-19T10:46:54.085Z,13.50
2022-12-19T10:49:30.970Z,12.70
2022-12-19T10:52:08.803Z,13.00
2022-12-19T10:54:53.976Z,15.40
2022-12-19T10:57:32.701Z,15.20
2022-12-19T11:00:16.405Z,13.70
2022-12-19T11:02:53.756Z,14.10
2022-12-19T11:05:32.356Z,12.20
2022-12-19T11:08:24.889Z,14.30
2022-12-19T11:12:08.052Z,13.70
2022-12-19T11:18:56.751Z,15.00
2022-12-19T11:27:10.913Z,11.70
2022-12-19T11:29:35.141Z,11.60
2022-12-19T11:29:54.950Z,12.50
2022-12-19T11:29:55.166Z,13.10
2022-12-19T11:33:19.938Z,11.50
2022-12-19T11:35:58.517Z,9.80
2022-12-19T11:38:49.100Z,12.30
2022-12-19T11:41:39.145Z,14.90
2022-12-19T11:44:31.112Z,14.50
2022-12-19T11:47:26.887Z,13.10
2022-12-19T11:50:12.669Z,10.10
2022-12-19T11:53:05.964Z,12.20
2022-12-19T11:55:52.252Z,12.50
2022-12-19T11:58:37.446Z,8.20
2022-12-19T12:01:25.980Z,9.10
2022-12-19T12:04:34.455Z,9.00
2022-12-19T12:07:39.871Z,10.10
2022-12-19T12:14:55.769Z,10.00
2022-12-19T12:22:48.707Z,10.10
2022-12-19T12:31:07.084Z,8.50
2022-12-19T12:31:15.190Z,9.40
2022-12-19T12:31:31.196Z,7.00
2022-12-19T12:31:45.374Z,8.30
2022-12-19T12:31:50.785Z,9.10
2022-12-19T12:35:42.373Z,8.50
2022-12-19T12:39:55.072Z,8.50
2022-12-19T12:42:48.595Z,11.90
2022-12-19T12:45:28.858Z,10.60
2022-12-19T12:48:04.090Z,10.00
2022-12-19T12:50:53.162Z,10.20
2022-12-19T12:53:37.968Z,12.10
2022-12-19T12:56:23.223Z,11.70
2022-12-19T12:59:27.245Z,9.80
2022-12-19T13:02:19.776Z,11.50
2022-12-19T13:05:17.010Z,8.90
2022-12-19T13:07:57.843Z,9.90
2022-12-19T13:10:40.904Z,11.40
2022-12-19T13:13:25.680Z,12.00
2022-12-19T13:16:50.020Z,11.20
2022-12-19T13:19:30.846Z,10.90
2022-12-19T13:22:42.977Z,13.20
2022-12-19T13:25:55.370Z,12.50
2022-12-19T13:28:46.450Z,14.00
2022-12-19T13:31:24.064Z,13.30
2022-12-19T13:34:22.392Z,11.20
2022-12-19T13:39:50.928Z,11.50
2022-12-19T13:40:32.838Z,11.60
2022-12-19T13:43:38.365Z,10.50
2022-12-19T13:46:41.567Z,11.70
2022-12-19T13:49:28.902Z,10.70
2022-12-19T13:52:13.515Z,10.20
2022-12-19T13:54:58.709Z,12.60
2022-12-19T13:57:35.064Z,13.10
2022-12-19T14:00:21.857Z,13.40
2022-12-19T14:03:00.183Z,14.80
2022-12-19T14:06:17.506Z,15.20
2022-12-19T14:08:35.293Z,14.20
2022-12-19T14:11:27.405Z,12.40
2022-12-19T14:14:35.327Z,12.00
2022-12-19T14:17:19.602Z,13.20
2022-12-19T14:20:28.594Z,12.60
2022-12-19T14:22:56.322Z,13.00
2022-12-19T14:28:14.936Z,12.90
2022-12-19T14:28:54.539Z,11.40
2022-12-19T14:31:30.735Z,11.00
2022-12-19T14:34:43.218Z,9.70
2022-12-19T14:37:01.592Z,12.80
2022-12-19T14:39:38.919Z,12.50
2022-12-19T14:43:59.131Z,11.00
2022-12-19T14:52:53.686Z,12.60
2022-12-19T14:54:18.272Z,9.40
2022-12-19T14:54:33.735Z,9.80
2022-12-19T14:58:54.409Z,8.50
2022-12-19T15:01:08.226Z,10.70
2022-12-19T15:04:49.168Z,10.10
2022-12-19T15:07:09.249Z,9.60
2022-12-19T15:11:02.448Z,6.10
2022-12-19T15:14:51.166Z,11.80
2022-12-19T15:16:31.236Z,12.40
2022-12-19T15:19:11.877Z,12.70
2022-12-19T15:21:45.761Z,12.40
2022-12-19T15:24:20.550Z,11.00
2022-12-19T15:26:58.725Z,13.60
2022-12-19T15:29:36.288Z,16.20
2022-12-19T15:32:16.243Z,20.40
2022-12-19T15:34:51.822Z,15.20
2022-12-19T15:37:26.065Z,17.70
2022-12-19T15:40:00.090Z,15.00
2022-12-19T15:42:34.883Z,13.20
2022-12-19T15:45:13.978Z,10.30
2022-12-19T15:47:50.337Z,9.20
2022-12-19T15:50:27.967Z,11.40
2022-12-19T15:53:24.500Z,15.80
2022-12-19T15:56:10.355Z,11.10
2022-12-19T15:58:44.671Z,13.40
2022-12-19T16:01:19.316Z,11.20
2022-12-19T16:03:54.713Z,10.10
2022-12-19T16:06:29.128Z,12.90
2022-12-19T16:09:10.270Z,10.60
2022-12-19T16:11:44.808Z,11.70
2022-12-19T16:14:20.154Z,15.90
2022-12-19T16:16:57.675Z,11.20
2022-12-19T16:19:33.757Z,10.80
2022-12-19T16:22:22.657Z,10.50
2022-12-19T16:24:58.587Z,11.80
2022-12-19T16:27:34.067Z,9.60
2022-12-19T16:30:23.935Z,11.60
2022-12-19T16:32:58.275Z,10.40
2022-12-19T16:36:04.757Z,10.60
2022-12-19T16:38:28.001Z,9.20
2022-12-19T16:41:02.713Z,10.10
2022-12-19T16:43:40.019Z,10.30
2022-12-19T16:46:23.611Z,10.20
2022-12-19T16:48:58.593Z,8.90
2022-12-19T16:51:33.755Z,11.00
2022-12-19T16:54:08.429Z,10.20
2022-12-19T16:56:47.956Z,8.80
2022-12-19T16:59:28.427Z,12.50
2022-12-19T17:02:03.376Z,10.60
2022-12-19T17:04:42.014Z,9.40
2022-12-19T17:07:17.659Z,9.80
2022-12-19T17:09:52.284Z,10.60
2022-12-19T17:12:28.692Z,10.60
2022-12-19T17:15:03.736Z,11.10
2022-12-19T17:17:37.526Z,11.40
2022-12-19T17:20:19.789Z,14.10
2022-12-19T17:22:53.878Z,12.50
2022-12-19T17:25:29.918Z,13.20
2022-12-19T17:28:04.202Z,11.40
2022-12-19T17:30:39.958Z,12.40
2022-12-19T17:33:17.689Z,17.30
2022-12-19T17:35:51.809Z,14.50
2022-12-19T17:38:27.937Z,12.20
2022-12-19T17:41:01.910Z,14.20
2022-12-19T17:43:35.979Z,10.00
2022-12-19T17:46:20.306Z,14.10
2022-12-19T17:48:56.046Z,9.80
2022-12-19T17:51:30.279Z,13.20
2022-12-19T17:54:04.386Z,11.90
2022-12-19T17:56:38.536Z,11.90
2022-12-19T17:59:12.405Z,9.70
2022-12-19T18:01:47.649Z,10.70
2022-12-19T18:04:32.855Z,10.20
2022-12-19T18:07:11.735Z,11.80
2022-12-19T18:09:46.225Z,11.00
2022-12-19T18:12:20.539Z,6.70
2022-12-19T18:14:54.594Z,7.80
2022-12-19T18:17:30.793Z,12.00
2022-12-19T18:20:06.322Z,10.80
2022-12-19T18:22:40.165Z,12.40
2022-12-19T18:25:21.116Z,9.00
2022-12-19T18:27:56.227Z,9.90
2022-12-19T18:30:30.251Z,11.10
2022-12-19T18:33:08.098Z,9.00
2022-12-19T18:35:47.603Z,12.20
2022-12-19T18:38:24.625Z,10.50
2022-12-19T18:40:58.761Z,8.80
2022-12-19T18:43:32.825Z,13.10
2022-12-19T18:46:07.177Z,18.20
2022-12-19T18:48:42.564Z,18.20
2022-12-19T18:51:21.992Z,17.60
2022-12-19T18:53:56.145Z,12.60
2022-12-19T18:56:30.515Z,11.00
2022-12-19T18:59:05.183Z,10.80
2022-12-19T19:01:41.231Z,12.80
2022-12-19T19:04:18.293Z,16.90
2022-12-19T19:06:55.205Z,13.80
2022-12-19T19:09:29.216Z,14.60
2022-12-19T19:12:03.166Z,13.30
2022-12-19T19:14:38.007Z,13.30
2022-12-19T19:17:32.175Z,12.80
2022-12-19T19:20:09.505Z,14.70
2022-12-19T19:22:43.510Z,12.60
2022-12-19T19:25:17.736Z,16.10
2022-12-19T19:27:52.101Z,14.80
2022-12-19T19:30:26.543Z,15.70
2022-12-19T19:33:07.376Z,12.80
2022-12-19T19:35:43.579Z,11.20
2022-12-19T19:38:19.870Z,9.80
2022-12-19T19:40:54.435Z,14.30
2022-12-19T19:43:33.976Z,12.70
2022-12-19T19:46:08.604Z,12.10
2022-12-19T19:48:42.819Z,13.50
2022-12-19T19:51:19.648Z,13.60
2022-12-19T19:53:53.754Z,13.60
2022-12-19T19:56:27.940Z,13.70
2022-12-19T19:59:02.944Z,14.20
2022-12-19T20:01:37.243Z,11.40
2022-12-19T20:04:12.657Z,14.80
2022-12-19T20:06:46.783Z,15.50
2022-12-19T20:09:20.852Z,14.90
2022-12-19T20:11:55.431Z,16.60
2022-12-19T20:14:30.469Z,17.20
2022-12-19T20:17:05.042Z,13.10
2022-12-19T20:19:39.244Z,14.40
2022-12-19T20:22:13.988Z,15.40
2022-12-19T20:24:48.612Z,16.80
2022-12-19T20:27:22.701Z,18.20
2022-12-19T20:29:57.039Z,16.80
2022-12-19T20:32:31.827Z,14.60
2022-12-19T20:35:12.432Z,13.90
2022-12-19T20:37:48.741Z,15.10
2022-12-19T20:40:22.969Z,13.90
2022-12-19T20:42:57.727Z,13.90
2022-12-19T20:45:32.480Z,13.80
2022-12-19T20:48:07.094Z,15.20
2022-12-19T20:50:43.549Z,15.30
2022-12-19T20:53:17.879Z,15.40
2022-12-19T20:55:58.982Z,15.20
2022-12-19T20:58:36.164Z,15.50
2022-12-19T21:01:14.463Z,15.00
2022-12-19T21:03:49.616Z,15.10
2022-12-19T21:06:27.365Z,15.60
2022-12-19T21:09:02.742Z,16.00
2022-12-19T21:11:37.447Z,15.10
2022-12-19T21:14:12.079Z,15.70
2022-12-19T21:16:47.003Z,16.00
2022-12-19T21:19:21.687Z,16.70
2022-12-19T21:21:55.882Z,17.60
2022-12-19T21:24:30.594Z,18.10
2022-12-19T21:27:05.242Z,16.10
2022-12-19T21:29:40.063Z,15.70
2022-12-19T21:32:18.840Z,15.30
2022-12-19T21:34:55.236Z,16.30
2022-12-19T21:37:29.456Z,15.30
2022-12-19T21:40:03.832Z,15.90
2022-12-19T21:42:38.297Z,15.60
2022-12-19T21:45:14.975Z,16.20
2022-12-19T21:47:49.192Z,18.20
2022-12-19T21:50:23.492Z,14.90
2022-12-19T21:52:57.613Z,15.30
2022-12-19T21:55:31.833Z,15.80
2022-12-19T21:58:06.037Z,14.90
2022-12-19T22:00:40.647Z,15.30
2022-12-19T22:03:15.711Z,16.50
2022-12-19T22:05:50.188Z,18.10
2022-12-19T22:08:24.235Z,17.70
2022-12-19T22:10:58.767Z,16.90
2022-12-19T22:13:32.752Z,16.50
2022-12-19T22:16:07.512Z,14.80
2022-12-19T22:18:42.512Z,16.40
2022-12-19T22:21:18.307Z,15.20
2022-12-19T22:23:52.484Z,16.00
2022-12-19T22:26:28.820Z,15.60
2022-12-19T22:29:03.118Z,15.70
2022-12-19T22:31:38.581Z,15.30
2022-12-19T22:34:16.051Z,15.10
2022-12-19T22:36:50.744Z,13.60
2022-12-19T22:39:25.936Z,14.60
2022-12-19T22:42:00.181Z,15.50
2022-12-19T22:44:34.132Z,15.80
2022-12-19T22:47:08.206Z,14.90
2022-12-19T22:49:42.786Z,14.40
2022-12-19T22:52:17.564Z,14.00
2022-12-19T22:54:51.991Z,13.70
2022-12-19T22:57:26.068Z,14.50
2022-12-19T23:00:00.231Z,16.20
2022-12-19T23:02:34.219Z,16.30
2022-12-19T23:05:09.907Z,16.20
2022-12-19T23:07:43.844Z,14.30
2022-12-19T23:10:18.482Z,14.00
2022-12-19T23:12:52.212Z,14.90
2022-12-19T23:15:26.514Z,15.60
2022-12-19T23:18:00.436Z,15.90
2022-12-19T23:20:34.393Z,14.10
2022-12-19T23:23:08.734Z,14.80
2022-12-19T23:25:46.216Z,13.20
2022-12-19T23:28:20.316Z,15.90
2022-12-19T23:31:02.814Z,15.10
2022-12-19T23:33:38.016Z,16.00
2022-12-19T23:36:12.850Z,13.90
2022-12-19T23:38:46.670Z,14.30
2022-12-19T23:41:21.278Z,13.50
2022-12-19T23:43:56.102Z,13.40
2022-12-19T23:46:30.664Z,13.40
2022-12-19T23:49:04.586Z,12.60
2022-12-19T23:51:38.576Z,13.10
2022-12-19T23:54:12.646Z,12.40
2022-12-19T23:56:46.604Z,13.00
2022-12-19T23:59:20.540Z,11.80
